CZ-0001 weather

Factory Jihočeské Papírny Heliport
České Budějovice, South Bohemian Region, Czechia

Public forecast

Using degrees Celsius for public forecast. Weather courtesy of forecast.io.

METAR (pilot weather report)

Closest report is Linz Hörsching Airport, 45.1 nm (83.5 km) SSW. Retrieved 2019/08/25 06:20 UTC (28 minutes ago):

LOWL 250620Z VRB01KT CAVOK 19/16 Q1020 NOSIG

TAF (pilot weather forecast)

Closest forecast is Linz Hörsching Airport, 45.1 nm (83.5 km) SSW. Retrieved 2019/08/25 06:18 UTC (30 minutes ago):

TAF LOWL 250515Z 2506/2606 09005KT CAVOK TX27/2513Z TN17/2603Z TEMPO 2510/2518 9999 FEW040 SCT300 PROB30 TEMPO 2513/2518 9999 SHRA FEW050CB BKN300 PROB30 2600/2606 VRB02KT 0300 FG BKN003